Time,TemperatureF,DewpointF,PressureIn,WindDirection,WindDirectionDegrees,WindSpeedMPH,WindSpeedGustMPH,Humidity,HourlyPrecipIn,Conditions,Clouds,dailyrainin,SoftwareType,DateUTC
2015-08-29 00:14:00,72.1,69.0,30.02,SSE,157,0.0,-999.0,90,-99.99,,,0.00,Acu-Link.com,2015-08-29 04:14:00,
2015-08-29 00:29:00,72.0,68.9,30.01,ENE,67,0.0,-999.0,90,-99.99,,,0.00,Acu-Link.com,2015-08-29 04:29:00,
2015-08-29 00:44:00,72.0,68.9,30.00,NNE,22,2.2,-999.0,90,-99.99,,,0.00,Acu-Link.com,2015-08-29 04:44:00,
2015-08-29 00:59:00,72.0,68.9,30.00,NNE,22,1.6,-999.0,90,-99.99,,,0.00,Acu-Link.com,2015-08-29 04:59:00,
2015-08-29 01:15:00,72.0,69.2,30.01,NE,45,3.1,-999.0,91,-99.99,,,0.00,Acu-Link.com,2015-08-29 05:15:00,
2015-08-29 01:30:00,72.0,69.2,30.00,ENE,67,2.2,-999.0,91,-99.99,,,0.00,Acu-Link.com,2015-08-29 05:30:00,
2015-08-29 01:45:00,72.0,69.2,30.00,NNE,22,1.1,-999.0,91,-99.99,,,0.00,Acu-Link.com,2015-08-29 05:45:00,
2015-08-29 02:00:00,72.0,69.2,30.00,NE,45,0.0,-999.0,91,-99.99,,,0.00,Acu-Link.com,2015-08-29 06:00:00,
2015-08-29 02:15:00,71.8,69.0,29.99,ENE,67,0.0,-999.0,91,-99.99,,,0.00,Acu-Link.com,2015-08-29 06:15:00,
2015-08-29 02:30:00,71.6,68.8,29.99,NE,45,0.0,-999.0,91,-99.99,,,0.00,Acu-Link.com,2015-08-29 06:30:00,
2015-08-29 02:46:00,71.6,68.8,29.99,NNE,22,0.0,-999.0,91,-99.99,,,0.00,Acu-Link.com,2015-08-29 06:46:00,
2015-08-29 03:01:00,71.4,68.6,29.99,WNW,292,0.0,-999.0,91,-99.99,,,0.00,Acu-Link.com,2015-08-29 07:01:00,
2015-08-29 03:16:00,71.4,68.6,29.98,ENE,67,0.0,-999.0,91,-99.99,,,0.00,Acu-Link.com,2015-08-29 07:16:00,
2015-08-29 03:31:00,71.4,68.6,29.98,WNW,292,0.0,-999.0,91,-99.99,,,0.00,Acu-Link.com,2015-08-29 07:31:00,
2015-08-29 03:46:00,71.6,68.8,29.98,NE,45,1.6,-999.0,91,-99.99,,,0.00,Acu-Link.com,2015-08-29 07:46:00,
2015-08-29 04:01:00,71.8,69.0,29.97,ENE,67,0.0,-999.0,91,-99.99,,,0.00,Acu-Link.com,2015-08-29 08:01:00,
2015-08-29 04:16:00,71.8,69.0,29.98,ENE,67,1.6,-999.0,91,-99.99,,,0.00,Acu-Link.com,2015-08-29 08:16:00,
2015-08-29 04:32:00,72.0,69.2,29.98,ENE,67,2.2,-999.0,91,-99.99,,,0.00,Acu-Link.com,2015-08-29 08:32:00,
2015-08-29 04:47:00,72.0,69.2,29.98,ENE,67,2.7,-999.0,91,-99.99,,,0.00,Acu-Link.com,2015-08-29 08:47:00,
2015-08-29 05:02:00,72.0,69.2,29.97,East,90,2.7,-999.0,91,-99.99,,,0.00,Acu-Link.com,2015-08-29 09:02:00,
2015-08-29 05:17:00,72.0,69.2,29.98,NE,45,1.6,-999.0,91,-99.99,,,0.00,Acu-Link.com,2015-08-29 09:17:00,
2015-08-29 05:32:00,72.1,69.4,29.97,ENE,67,1.1,-999.0,91,-99.99,,,0.00,Acu-Link.com,2015-08-29 09:32:00,
2015-08-29 05:47:00,72.1,69.4,29.98,ENE,67,2.2,-999.0,91,-99.99,,,0.00,Acu-Link.com,2015-08-29 09:47:00,
2015-08-29 06:02:00,72.5,69.7,29.98,NE,45,2.7,-999.0,91,-99.99,,,0.00,Acu-Link.com,2015-08-29 10:02:00,
2015-08-29 06:17:00,72.7,69.9,29.98,NNE,22,2.7,-999.0,91,-99.99,,,0.01,Acu-Link.com,2015-08-29 10:17:00,
2015-08-29 06:34:00,72.7,69.9,29.99,ENE,67,2.7,-999.0,91,-99.99,,,0.01,Acu-Link.com,2015-08-29 10:34:00,
2015-08-29 06:49:00,72.7,69.9,29.99,NE,45,2.2,-999.0,91,-99.99,,,0.01,Acu-Link.com,2015-08-29 10:49:00,
2015-08-29 07:04:00,72.9,70.1,30.00,NNE,22,1.1,-999.0,91,-99.99,,,0.01,Acu-Link.com,2015-08-29 11:04:00,
2015-08-29 07:19:00,72.9,70.1,30.00,NE,45,0.0,-999.0,91,-99.99,,,0.01,Acu-Link.com,2015-08-29 11:19:00,
2015-08-29 07:34:00,73.6,70.8,30.01,East,90,1.6,-999.0,91,-99.99,,,0.01,Acu-Link.com,2015-08-29 11:34:00,
2015-08-29 07:49:00,74.3,71.5,30.01,NE,45,1.6,-999.0,91,-99.99,,,0.01,Acu-Link.com,2015-08-29 11:49:00,
2015-08-29 08:04:00,75.2,72.4,30.00,East,90,4.7,-999.0,91,-99.99,,,0.01,Acu-Link.com,2015-08-29 12:04:00,
2015-08-29 08:20:00,76.5,73.6,30.00,ENE,67,3.8,-999.0,91,-99.99,,,0.01,Acu-Link.com,2015-08-29 12:20:00,
2015-08-29 08:35:00,78.4,74.6,30.01,ENE,67,4.3,-999.0,88,-99.99,,,0.01,Acu-Link.com,2015-08-29 12:35:00,
2015-08-29 08:50:00,80.8,75.1,30.01,ESE,112,4.7,-999.0,83,-99.99,,,0.01,Acu-Link.com,2015-08-29 12:50:00,
2015-08-29 09:05:00,82.6,75.8,30.01,NE,45,4.3,-999.0,80,-99.99,,,0.01,Acu-Link.com,2015-08-29 13:05:00,
2015-08-29 09:20:00,83.8,76.2,30.00,NE,45,5.8,-999.0,78,-99.99,,,0.01,Acu-Link.com,2015-08-29 13:20:00,
2015-08-29 09:36:00,86.0,77.1,30.01,ESE,112,9.8,-999.0,75,-99.99,,,0.01,Acu-Link.com,2015-08-29 13:36:00,
2015-08-29 09:51:00,86.7,77.0,30.01,NE,45,3.1,-999.0,73,-99.99,,,0.01,Acu-Link.com,2015-08-29 13:51:00,
2015-08-29 10:06:00,88.3,76.4,30.01,SE,135,6.3,-999.0,68,-99.99,,,0.01,Acu-Link.com,2015-08-29 14:06:00,
2015-08-29 10:21:00,87.6,76.2,30.01,ENE,67,7.8,-999.0,69,-99.99,,,0.01,Acu-Link.com,2015-08-29 14:21:00,
2015-08-29 10:36:00,88.3,76.4,30.01,NE,45,5.8,-999.0,68,-99.99,,,0.01,Acu-Link.com,2015-08-29 14:36:00,
2015-08-29 10:51:00,88.9,76.0,30.01,ESE,112,6.3,-999.0,66,-99.99,,,0.01,Acu-Link.com,2015-08-29 14:51:00,
2015-08-29 11:07:00,90.1,75.3,30.01,ENE,67,8.3,-999.0,62,-99.99,,,0.01,Acu-Link.com,2015-08-29 15:07:00,
2015-08-29 11:22:00,91.2,74.8,30.01,ENE,67,7.8,-999.0,59,-99.99,,,0.01,Acu-Link.com,2015-08-29 15:22:00,
2015-08-29 11:37:00,91.4,74.5,30.01,ESE,112,5.1,-999.0,58,-99.99,,,0.01,Acu-Link.com,2015-08-29 15:37:00,
2015-08-29 11:52:00,91.8,73.8,30.01,ENE,67,7.8,-999.0,56,-99.99,,,0.01,Acu-Link.com,2015-08-29 15:52:00,
2015-08-29 12:07:00,91.6,74.2,30.01,East,90,7.4,-999.0,57,-99.99,,,0.01,Acu-Link.com,2015-08-29 16:07:00,
2015-08-29 12:23:00,91.9,73.4,30.01,ESE,112,4.3,-999.0,55,-99.99,,,0.01,Acu-Link.com,2015-08-29 16:23:00,
2015-08-29 12:38:00,93.4,73.1,30.00,NE,45,5.1,-999.0,52,-99.99,,,0.01,Acu-Link.com,2015-08-29 16:38:00,
2015-08-29 12:53:00,90.9,71.9,29.99,East,90,3.8,-999.0,54,-99.99,,,0.01,Acu-Link.com,2015-08-29 16:53:00,
2015-08-29 13:08:00,93.6,70.9,29.99,ESE,112,3.8,-999.0,48,-99.99,,,0.01,Acu-Link.com,2015-08-29 17:08:00,
2015-08-29 13:23:00,94.3,70.9,29.99,East,90,6.3,-999.0,47,-99.99,,,0.01,Acu-Link.com,2015-08-29 17:23:00,
2015-08-29 13:38:00,94.5,71.1,29.98,East,90,2.7,-999.0,47,-99.99,,,0.01,Acu-Link.com,2015-08-29 17:38:00,
2015-08-29 13:53:00,95.0,70.9,29.97,ESE,112,3.8,-999.0,46,-99.99,,,0.01,Acu-Link.com,2015-08-29 17:53:00,
2015-08-29 14:08:00,93.7,71.6,29.97,NNE,22,3.8,-999.0,49,-99.99,,,0.01,Acu-Link.com,2015-08-29 18:08:00,
2015-08-29 14:24:00,93.9,71.8,29.97,East,90,7.4,-999.0,49,-99.99,,,0.01,Acu-Link.com,2015-08-29 18:24:00,
2015-08-29 14:39:00,97.0,72.7,29.96,NNE,22,3.1,-999.0,46,-99.99,,,0.01,Acu-Link.com,2015-08-29 18:39:00,
2015-08-29 14:54:00,93.9,73.0,29.95,NNE,22,4.3,-999.0,51,-99.99,,,0.01,Acu-Link.com,2015-08-29 18:54:00,
2015-08-29 15:09:00,89.4,70.5,29.95,SSE,157,7.4,-999.0,54,-99.99,,,0.01,Acu-Link.com,2015-08-29 19:09:00,
2015-08-29 15:17:00,84.9,69.4,29.93,ESE,112,9.4,9.4,60,1.62,,,1.62,VISReader 3.6.1.2,2015-08-29 19:17:00,